createdAt,value
2023-05-21T00:01:09.167Z,96.88
2023-05-21T00:03:54.603Z,97.70
2023-05-21T00:06:39.921Z,97.86
2023-05-21T00:09:25.208Z,97.33
2023-05-21T00:12:10.657Z,97.14
2023-05-21T00:14:56.038Z,97.40
2023-05-21T00:17:41.874Z,97.45
2023-05-21T00:20:29.293Z,97.35
2023-05-21T00:23:18.589Z,97.32
2023-05-21T00:26:04.206Z,96.88
2023-05-21T00:28:50.179Z,96.51
2023-05-21T00:31:35.830Z,96.43
2023-05-21T00:34:21.035Z,96.54
2023-05-21T00:37:06.398Z,96.51
2023-05-21T00:39:51.633Z,98.19
2023-05-21T00:42:41.277Z,98.27
2023-05-21T00:45:26.289Z,97.54
2023-05-21T00:48:12.944Z,97.64
2023-05-21T00:50:58.577Z,97.39
2023-05-21T00:53:45.184Z,97.24
2023-05-21T00:56:31.127Z,97.50
2023-05-21T00:59:16.862Z,97.71
2023-05-21T01:02:04.316Z,97.44
2023-05-21T01:04:50.086Z,97.24
2023-05-21T01:07:37.220Z,97.57
2023-05-21T01:10:23.330Z,98.07
2023-05-21T01:13:08.677Z,97.88
2023-05-21T01:15:54.677Z,97.63
2023-05-21T01:18:40.143Z,97.70
2023-05-21T01:21:26.022Z,97.70
2023-05-21T01:24:11.893Z,97.10
2023-05-21T01:26:58.728Z,97.28
2023-05-21T01:29:44.130Z,97.64
2023-05-21T01:32:32.454Z,97.21
2023-05-21T01:35:22.485Z,97.21
2023-05-21T01:38:27.537Z,97.62
2023-05-21T01:41:15.259Z,97.60
2023-05-21T01:44:02.410Z,97.14
2023-05-21T01:46:47.675Z,97.24
2023-05-21T01:49:33.497Z,97.11
2023-05-21T01:52:18.928Z,97.97
2023-05-21T01:55:04.544Z,97.67
2023-05-21T01:57:51.367Z,97.53
2023-05-21T02:00:37.550Z,97.72
2023-05-21T02:03:27.308Z,97.48
2023-05-21T02:06:12.690Z,97.30
2023-05-21T02:08:57.968Z,97.28
2023-05-21T02:11:43.226Z,96.66
2023-05-21T02:14:29.876Z,96.96
2023-05-21T02:17:15.208Z,96.97
2023-05-21T02:20:18.927Z,96.81
2023-05-21T02:23:04.129Z,97.51
2023-05-21T02:25:49.253Z,97.25
2023-05-21T02:28:36.176Z,96.88
2023-05-21T02:31:21.746Z,96.86
2023-05-21T02:34:08.140Z,96.61
2023-05-21T02:36:54.700Z,96.71
2023-05-21T02:39:40.247Z,96.77
2023-05-21T02:42:25.986Z,96.80
2023-05-21T02:45:12.915Z,96.71
2023-05-21T02:47:58.198Z,96.49
2023-05-21T02:50:43.382Z,96.33
2023-05-21T02:53:28.600Z,96.37
2023-05-21T02:56:13.976Z,96.31
2023-05-21T02:58:59.258Z,96.44
2023-05-21T03:01:45.263Z,96.14
2023-05-21T03:04:30.467Z,96.07
2023-05-21T03:07:19.123Z,96.29
2023-05-21T03:10:05.262Z,96.39
2023-05-21T03:12:50.311Z,96.66
2023-05-21T03:15:35.922Z,96.63
2023-05-21T03:18:21.442Z,96.75
2023-05-21T03:21:06.934Z,97.11
2023-05-21T03:23:53.129Z,97.57
2023-05-21T03:26:38.545Z,97.83
2023-05-21T03:29:23.790Z,98.05
2023-05-21T03:32:09.154Z,98.01
2023-05-21T03:34:54.196Z,98.26
2023-05-21T03:37:39.485Z,99.13
2023-05-21T03:40:25.096Z,99.32
2023-05-21T03:43:10.524Z,99.58
2023-05-21T03:45:56.324Z,99.46
2023-05-21T03:48:41.978Z,99.52
2023-05-21T03:51:27.595Z,99.37
2023-05-21T03:54:12.825Z,99.61
2023-05-21T03:56:58.062Z,99.96
2023-05-21T03:59:43.500Z,100.00
2023-05-21T04:02:28.895Z,100.00
2023-05-21T04:05:13.917Z,100.00
2023-05-21T04:08:00.270Z,100.00
2023-05-21T04:10:45.536Z,100.00
2023-05-21T04:13:30.956Z,100.00
2023-05-21T04:16:19.262Z,100.00
2023-05-21T04:19:05.748Z,100.00
2023-05-21T04:21:51.064Z,100.00
2023-05-21T04:24:40.405Z,100.00
2023-05-21T04:27:25.644Z,100.00
2023-05-21T04:30:11.227Z,100.00
2023-05-21T04:32:58.069Z,100.00
2023-05-21T04:35:44.637Z,100.00
2023-05-21T04:38:30.267Z,100.00
2023-05-21T04:41:15.701Z,100.00
2023-05-21T04:44:01.161Z,100.00
2023-05-21T04:46:46.685Z,100.00
2023-05-21T04:49:35.029Z,100.00
2023-05-21T04:52:20.444Z,100.00
2023-05-21T04:55:09.721Z,100.00
2023-05-21T04:57:55.242Z,100.00
2023-05-21T05:00:42.239Z,100.00
2023-05-21T05:03:27.519Z,100.00
2023-05-21T05:06:12.723Z,100.00
2023-05-21T05:08:58.007Z,100.00
2023-05-21T05:11:43.172Z,100.00
2023-05-21T05:14:28.534Z,100.00
2023-05-21T05:17:16.849Z,100.00
2023-05-21T05:20:01.938Z,100.00
2023-05-21T05:22:47.447Z,100.00
2023-05-21T05:25:32.852Z,100.00
2023-05-21T05:28:17.975Z,100.00
2023-05-21T05:31:03.588Z,100.00
2023-05-21T05:33:49.267Z,100.00
2023-05-21T05:36:34.805Z,100.00
2023-05-21T05:39:20.109Z,100.00
2023-05-21T05:42:05.786Z,100.00
2023-05-21T05:44:50.767Z,100.00
2023-05-21T05:47:36.122Z,100.00
2023-05-21T05:50:21.549Z,100.00
2023-05-21T05:53:07.346Z,100.00
2023-05-21T05:55:52.916Z,100.00
2023-05-21T05:58:38.246Z,100.00
2023-05-21T06:01:24.833Z,100.00
2023-05-21T06:04:10.391Z,100.00
2023-05-21T06:06:59.769Z,100.00
2023-05-21T06:09:44.885Z,100.00
2023-05-21T06:12:30.221Z,100.00
2023-05-21T06:15:16.621Z,100.00
2023-05-21T06:18:01.996Z,100.00
2023-05-21T06:20:47.100Z,100.00
2023-05-21T06:23:32.761Z,100.00
2023-05-21T06:26:19.526Z,100.00
2023-05-21T06:29:04.665Z,100.00
2023-05-21T06:31:50.165Z,100.00
2023-05-21T06:34:35.526Z,100.00
2023-05-21T06:37:26.440Z,100.00
2023-05-21T06:40:12.468Z,100.00
2023-05-21T06:42:59.834Z,100.00
2023-05-21T06:45:45.156Z,100.00
2023-05-21T06:48:30.601Z,100.00
2023-05-21T06:51:15.950Z,100.00
2023-05-21T06:54:01.169Z,100.00
2023-05-21T06:56:46.648Z,100.00
2023-05-21T06:59:31.927Z,100.00
2023-05-21T07:02:17.603Z,100.00
2023-05-21T07:05:05.967Z,100.00
2023-05-21T07:07:51.116Z,100.00
2023-05-21T07:10:36.565Z,100.00
2023-05-21T07:13:22.153Z,100.00
2023-05-21T07:16:07.736Z,99.67
2023-05-21T07:18:52.908Z,99.12
2023-05-21T07:21:38.112Z,96.63
2023-05-21T07:24:23.704Z,94.87
2023-05-21T07:27:18.137Z,91.83
2023-05-21T07:30:11.080Z,84.62
2023-05-21T07:32:56.439Z,78.15
2023-05-21T07:35:41.605Z,74.99
2023-05-21T07:38:26.942Z,75.03
2023-05-21T07:41:13.706Z,74.52
2023-05-21T07:44:01.234Z,72.27
2023-05-21T07:46:46.761Z,70.50
2023-05-21T07:49:31.962Z,68.15
2023-05-21T07:52:17.420Z,68.26
2023-05-21T07:55:02.908Z,67.74
2023-05-21T07:57:47.989Z,67.17
2023-05-21T08:00:44.062Z,66.84
2023-05-21T08:03:31.187Z,67.25
2023-05-21T08:06:16.502Z,67.10
2023-05-21T08:09:06.131Z,64.32
2023-05-21T08:11:51.805Z,64.01
2023-05-21T08:14:37.133Z,59.45
2023-05-21T08:17:22.434Z,61.60
2023-05-21T08:20:08.285Z,62.59
2023-05-21T08:22:53.711Z,59.70
2023-05-21T08:25:39.218Z,61.87
2023-05-21T08:28:24.574Z,59.52
2023-05-21T08:31:09.816Z,59.96
2023-05-21T08:33:56.611Z,60.47
2023-05-21T08:36:43.393Z,61.34
2023-05-21T08:39:28.906Z,60.37
2023-05-21T08:42:37.438Z,59.26
2023-05-21T08:45:23.802Z,57.20
2023-05-21T08:48:11.720Z,57.92
2023-05-21T08:50:56.927Z,57.84
2023-05-21T08:53:44.844Z,58.49
2023-05-21T08:56:31.812Z,58.72
2023-05-21T08:59:18.360Z,60.46
2023-05-21T09:02:05.048Z,59.28
2023-05-21T09:04:50.968Z,58.18
2023-05-21T09:07:44.449Z,59.20
2023-05-21T09:10:35.865Z,59.69
2023-05-21T09:13:21.103Z,59.52
2023-05-21T09:16:07.244Z,57.71
2023-05-21T09:18:52.745Z,59.63
2023-05-21T09:21:39.544Z,59.69
2023-05-21T09:24:25.071Z,59.66
2023-05-21T09:27:10.530Z,57.00
2023-05-21T09:29:55.905Z,56.38
2023-05-21T09:32:41.470Z,55.83
2023-05-21T09:35:27.386Z,54.73
2023-05-21T09:38:13.076Z,54.65
2023-05-21T09:40:58.814Z,55.59
2023-05-21T09:43:44.996Z,56.13
2023-05-21T09:46:48.455Z,52.87
2023-05-21T09:49:33.549Z,54.24
2023-05-21T09:52:28.443Z,53.87
2023-05-21T09:55:14.736Z,54.22
2023-05-21T09:58:00.451Z,52.37
2023-05-21T10:00:45.962Z,54.03
2023-05-21T10:03:33.647Z,55.00
2023-05-21T10:06:19.638Z,54.69
2023-05-21T10:09:10.589Z,55.77
2023-05-21T10:11:57.440Z,56.13
2023-05-21T10:14:49.878Z,55.68
2023-05-21T10:17:36.055Z,53.81
2023-05-21T10:20:22.713Z,51.94
2023-05-21T10:23:09.209Z,52.55
2023-05-21T10:25:56.268Z,53.16
2023-05-21T10:28:42.192Z,54.57
2023-05-21T10:31:28.581Z,55.29
2023-05-21T10:34:14.838Z,53.36
2023-05-21T10:37:02.477Z,53.92
2023-05-21T10:39:49.099Z,55.42
2023-05-21T10:42:34.185Z,55.22
2023-05-21T10:45:49.939Z,55.48
2023-05-21T10:49:02.956Z,55.91
2023-05-21T10:52:08.238Z,55.08
2023-05-21T10:55:11.955Z,54.02
2023-05-21T10:57:57.169Z,53.29
2023-05-21T11:00:43.817Z,55.32
2023-05-21T11:03:30.799Z,53.98
2023-05-21T11:06:25.256Z,53.43
2023-05-21T11:09:15.172Z,52.21
2023-05-21T11:12:01.136Z,51.37
2023-05-21T11:15:06.595Z,49.91
2023-05-21T11:17:57.092Z,52.53
2023-05-21T11:20:50.441Z,52.11
2023-05-21T11:23:51.635Z,50.98
2023-05-21T11:26:50.168Z,48.70
2023-05-21T11:29:44.687Z,50.47
2023-05-21T11:32:30.006Z,48.66
2023-05-21T11:35:15.190Z,48.59
2023-05-21T11:38:00.376Z,48.44
2023-05-21T11:40:55.549Z,48.27
2023-05-21T11:43:41.178Z,47.79
2023-05-21T11:46:28.403Z,49.56
2023-05-21T11:49:13.894Z,47.42
2023-05-21T11:52:04.015Z,49.32
2023-05-21T11:54:55.118Z,48.44
2023-05-21T11:57:42.984Z,49.06
2023-05-21T12:00:28.780Z,50.10
2023-05-21T12:03:14.759Z,49.79
2023-05-21T12:06:05.753Z,49.00
2023-05-21T12:08:58.343Z,47.37
2023-05-21T12:11:44.148Z,46.95
2023-05-21T12:14:29.840Z,48.24
2023-05-21T12:17:19.817Z,47.29
2023-05-21T12:20:08.251Z,48.40
2023-05-21T12:22:54.208Z,48.78
2023-05-21T12:25:39.465Z,48.96
2023-05-21T12:28:24.907Z,47.83
2023-05-21T12:31:15.444Z,48.41
2023-05-21T12:34:02.274Z,49.34
2023-05-21T12:36:51.780Z,49.58
2023-05-21T12:39:43.181Z,48.56
2023-05-21T12:42:30.817Z,51.11
2023-05-21T12:45:18.881Z,50.38
2023-05-21T12:48:04.702Z,49.44
2023-05-21T12:50:52.181Z,49.16
2023-05-21T12:53:38.554Z,49.95
2023-05-21T12:56:23.842Z,50.43
2023-05-21T12:59:14.639Z,48.98
2023-05-21T13:02:00.584Z,47.56
2023-05-21T13:04:46.560Z,49.65
2023-05-21T13:07:34.503Z,51.02
2023-05-21T13:10:19.850Z,50.07
2023-05-21T13:13:05.013Z,50.53
2023-05-21T13:15:51.021Z,49.19
2023-05-21T13:18:36.184Z,50.57
2023-05-21T13:21:21.638Z,50.26
2023-05-21T13:24:07.513Z,50.57
2023-05-21T13:26:52.855Z,49.96
2023-05-21T13:29:38.204Z,51.18
2023-05-21T13:32:23.485Z,50.20
2023-05-21T13:35:10.093Z,48.84
2023-05-21T13:37:55.582Z,47.13
2023-05-21T13:40:41.569Z,47.96
2023-05-21T13:43:27.202Z,48.20
2023-05-21T13:46:12.582Z,49.09
2023-05-21T13:48:58.038Z,48.27
2023-05-21T13:51:43.271Z,48.31
2023-05-21T13:54:28.747Z,47.20
2023-05-21T13:57:13.977Z,47.72
2023-05-21T13:59:59.787Z,48.52
2023-05-21T14:02:45.332Z,48.19
2023-05-21T14:05:30.859Z,46.33
2023-05-21T14:08:19.959Z,46.55
2023-05-21T14:11:05.445Z,46.43
2023-05-21T14:13:50.382Z,46.46
2023-05-21T14:16:35.674Z,46.58
2023-05-21T14:19:20.931Z,45.70
2023-05-21T14:22:06.100Z,45.49
2023-05-21T14:24:51.339Z,45.24
2023-05-21T14:27:37.982Z,45.55
2023-05-21T14:30:23.504Z,46.30
2023-05-21T14:33:08.764Z,45.93
2023-05-21T14:35:54.228Z,45.00
2023-05-21T14:38:39.482Z,45.28
2023-05-21T14:41:28.129Z,45.54
2023-05-21T14:44:13.165Z,45.12
2023-05-21T14:46:58.391Z,44.83
2023-05-21T14:49:43.523Z,44.96
2023-05-21T14:52:28.726Z,45.25
2023-05-21T14:55:16.528Z,44.25
2023-05-21T14:58:03.249Z,44.03
2023-05-21T15:00:48.443Z,44.19
2023-05-21T15:03:33.766Z,46.46
2023-05-21T15:06:18.973Z,45.77
2023-05-21T15:09:04.151Z,45.57
2023-05-21T15:11:52.605Z,46.08
2023-05-21T15:14:38.124Z,46.42
2023-05-21T15:17:23.918Z,46.82
2023-05-21T15:20:09.961Z,46.48
2023-05-21T15:23:08.509Z,47.66
2023-05-21T15:26:00.697Z,47.73
2023-05-21T15:28:45.949Z,48.63
2023-05-21T15:31:31.735Z,47.43
2023-05-21T15:34:18.075Z,46.44
2023-05-21T15:37:03.305Z,48.21
2023-05-21T15:39:49.146Z,49.05
2023-05-21T15:42:34.373Z,48.85
2023-05-21T15:45:19.843Z,48.80
2023-05-21T15:48:05.533Z,48.42
2023-05-21T15:50:51.222Z,48.70
2023-05-21T15:53:36.422Z,48.47
2023-05-21T15:56:22.137Z,49.48
2023-05-21T15:59:07.925Z,50.01
2023-05-21T16:01:53.207Z,50.27
2023-05-21T16:04:38.617Z,48.92
2023-05-21T16:07:24.551Z,49.32
2023-05-21T16:10:10.741Z,49.13
2023-05-21T16:12:56.400Z,49.87
2023-05-21T16:15:41.750Z,49.96
2023-05-21T16:18:27.010Z,50.01
2023-05-21T16:21:12.228Z,49.21
2023-05-21T16:23:57.778Z,49.24
2023-05-21T16:26:43.874Z,49.00
2023-05-21T16:29:29.549Z,48.51
2023-05-21T16:32:15.048Z,48.24
2023-05-21T16:35:00.241Z,48.50
2023-05-21T16:37:46.278Z,48.22
2023-05-21T16:40:31.677Z,48.75
2023-05-21T16:43:17.226Z,49.35
2023-05-21T16:46:02.462Z,49.78
2023-05-21T16:48:47.679Z,48.82
2023-05-21T16:51:33.101Z,49.39
2023-05-21T16:54:18.645Z,48.88
2023-05-21T16:57:03.942Z,48.92
2023-05-21T16:59:49.290Z,49.68
2023-05-21T17:02:34.533Z,49.19
2023-05-21T17:05:20.343Z,49.30
2023-05-21T17:08:05.753Z,48.67
2023-05-21T17:10:51.229Z,49.23
2023-05-21T17:13:36.394Z,49.56
2023-05-21T17:16:21.810Z,48.24
2023-05-21T17:19:07.117Z,49.13
2023-05-21T17:21:54.238Z,48.46
2023-05-21T17:24:39.368Z,48.96
2023-05-21T17:27:24.830Z,49.13
2023-05-21T17:30:10.472Z,49.01
2023-05-21T17:32:56.246Z,49.72
2023-05-21T17:35:41.600Z,49.08
2023-05-21T17:38:27.070Z,49.96
2023-05-21T17:41:14.806Z,50.18
2023-05-21T17:43:59.822Z,50.66
2023-05-21T17:46:56.397Z,50.36
2023-05-21T17:49:41.777Z,52.57
2023-05-21T17:52:27.359Z,53.45
2023-05-21T17:55:12.582Z,54.51
2023-05-21T17:57:58.048Z,55.17
2023-05-21T18:00:43.526Z,56.15
2023-05-21T18:03:30.138Z,56.88
2023-05-21T18:06:15.921Z,56.89
2023-05-21T18:09:01.563Z,56.54
2023-05-21T18:11:46.846Z,56.84
2023-05-21T18:14:32.117Z,57.27
2023-05-21T18:17:17.085Z,57.48
2023-05-21T18:20:04.451Z,57.97
2023-05-21T18:22:50.794Z,59.09
2023-05-21T18:25:36.227Z,59.32
2023-05-21T18:28:21.757Z,59.32
2023-05-21T18:31:07.147Z,59.41
2023-05-21T18:33:52.337Z,60.03
2023-05-21T18:36:40.720Z,60.67
2023-05-21T18:39:27.834Z,61.19
2023-05-21T18:42:14.535Z,61.71
2023-05-21T18:45:07.424Z,61.77
2023-05-21T18:47:52.881Z,62.01
2023-05-21T18:50:38.985Z,62.01
2023-05-21T18:53:24.714Z,62.56
2023-05-21T18:56:10.352Z,63.38
2023-05-21T18:58:55.713Z,63.34
2023-05-21T19:01:41.299Z,63.70
2023-05-21T19:04:27.428Z,63.92
2023-05-21T19:07:13.039Z,64.47
2023-05-21T19:10:00.206Z,65.14
2023-05-21T19:12:45.858Z,64.84
2023-05-21T19:15:31.118Z,65.08
2023-05-21T19:18:17.359Z,65.62
2023-05-21T19:21:02.518Z,66.08
2023-05-21T19:23:53.135Z,66.34
2023-05-21T19:26:39.325Z,66.85
2023-05-21T19:29:24.596Z,66.75
2023-05-21T19:32:10.187Z,67.47
2023-05-21T19:34:57.431Z,67.67
2023-05-21T19:37:42.710Z,68.18
2023-05-21T19:40:27.981Z,68.45
2023-05-21T19:43:13.285Z,68.59
2023-05-21T19:45:58.748Z,69.12
2023-05-21T19:48:43.950Z,69.47
2023-05-21T19:51:29.237Z,69.89
2023-05-21T19:54:14.547Z,70.18
2023-05-21T19:56:59.722Z,70.54
2023-05-21T19:59:44.988Z,70.70
2023-05-21T20:02:30.262Z,70.96
2023-05-21T20:05:16.231Z,71.41
2023-05-21T20:08:01.472Z,71.65
2023-05-21T20:10:48.733Z,71.55
2023-05-21T20:13:35.828Z,71.90
2023-05-21T20:16:21.555Z,72.10
2023-05-21T20:19:07.030Z,72.24
2023-05-21T20:21:52.791Z,72.68
2023-05-21T20:24:38.020Z,73.08
2023-05-21T20:27:23.356Z,73.26
2023-05-21T20:30:09.007Z,73.60
2023-05-21T20:32:54.218Z,73.71
2023-05-21T20:35:39.710Z,73.99
2023-05-21T20:38:28.056Z,74.00
2023-05-21T20:41:13.383Z,74.39
2023-05-21T20:43:58.999Z,74.58
2023-05-21T20:46:44.317Z,74.73
2023-05-21T20:49:29.468Z,75.19
2023-05-21T20:52:14.916Z,75.25
2023-05-21T20:55:00.089Z,75.43
2023-05-21T20:57:45.613Z,75.56
2023-05-21T21:00:31.769Z,75.97
2023-05-21T21:03:18.153Z,76.01
2023-05-21T21:06:04.438Z,76.00
2023-05-21T21:08:50.208Z,76.45
2023-05-21T21:11:35.715Z,76.36
2023-05-21T21:14:20.838Z,76.45
2023-05-21T21:17:06.230Z,76.70
2023-05-21T21:19:51.385Z,76.99
2023-05-21T21:22:36.776Z,76.95
2023-05-21T21:25:22.038Z,77.31
2023-05-21T21:28:07.263Z,77.72
2023-05-21T21:30:52.691Z,77.58
2023-05-21T21:33:38.118Z,77.64
2023-05-21T21:36:23.476Z,77.95
2023-05-21T21:39:08.732Z,78.04
2023-05-21T21:41:54.118Z,78.36
2023-05-21T21:44:39.653Z,78.61
2023-05-21T21:47:25.099Z,78.31
2023-05-21T21:50:10.734Z,78.42
2023-05-21T21:52:57.308Z,78.41
2023-05-21T21:55:42.573Z,78.76
2023-05-21T21:58:28.000Z,78.65
2023-05-21T22:01:13.251Z,79.41
2023-05-21T22:03:58.617Z,79.29
2023-05-21T22:06:45.410Z,79.47
2023-05-21T22:09:30.888Z,79.27
2023-05-21T22:12:16.783Z,79.61
2023-05-21T22:15:05.412Z,79.86
2023-05-21T22:17:52.021Z,79.63
2023-05-21T22:20:38.415Z,80.02
2023-05-21T22:23:23.642Z,79.91
2023-05-21T22:26:09.658Z,79.76
2023-05-21T22:28:54.982Z,80.05
2023-05-21T22:31:39.996Z,80.18
2023-05-21T22:34:25.703Z,79.93
2023-05-21T22:37:11.120Z,80.23
2023-05-21T22:39:57.337Z,80.42
2023-05-21T22:42:42.644Z,80.53
2023-05-21T22:45:28.586Z,80.62
2023-05-21T22:48:14.397Z,81.04
2023-05-21T22:51:01.880Z,80.84
2023-05-21T22:53:47.375Z,80.97
2023-05-21T22:56:32.586Z,81.26
2023-05-21T22:59:17.799Z,81.37
2023-05-21T23:02:03.221Z,81.42
2023-05-21T23:04:49.367Z,81.77
2023-05-21T23:07:34.562Z,81.59
2023-05-21T23:10:19.955Z,82.00
2023-05-21T23:13:05.269Z,81.78
2023-05-21T23:15:51.468Z,81.45
2023-05-21T23:18:36.771Z,81.80
2023-05-21T23:21:22.329Z,82.02
2023-05-21T23:24:08.633Z,82.03
2023-05-21T23:26:56.637Z,81.99
2023-05-21T23:29:42.242Z,82.08
2023-05-21T23:32:27.746Z,81.95
2023-05-21T23:35:14.437Z,82.10
2023-05-21T23:37:59.804Z,82.47
2023-05-21T23:40:45.156Z,82.04
2023-05-21T23:43:30.562Z,82.20
2023-05-21T23:46:16.188Z,82.22
2023-05-21T23:49:01.650Z,82.52
2023-05-21T23:51:50.540Z,82.33
2023-05-21T23:54:35.777Z,82.57
2023-05-21T23:57:20.984Z,82.91
